sensor_id;sensor_type;location;lat;lon;timestamp;P1;durP1;ratioP1;P2;durP2;ratioP2
13685;SDS011;6915;48.296;8.874;2024-03-06T00:02:19;3.73;;;3.10;;
13685;SDS011;6915;48.296;8.874;2024-03-06T00:04:46;3.77;;;2.20;;
13685;SDS011;6915;48.296;8.874;2024-03-06T00:07:14;3.40;;;2.13;;
13685;SDS011;6915;48.296;8.874;2024-03-06T00:09:41;2.27;;;2.07;;
13685;SDS011;6915;48.296;8.874;2024-03-06T00:12:09;2.43;;;2.23;;
13685;SDS011;6915;48.296;8.874;2024-03-06T00:14:36;3.40;;;1.43;;
13685;SDS011;6915;48.296;8.874;2024-03-06T00:17:03;2.70;;;2.00;;
13685;SDS011;6915;48.296;8.874;2024-03-06T00:19:31;1.73;;;1.50;;
13685;SDS011;6915;48.296;8.874;2024-03-06T00:21:59;3.03;;;1.63;;
13685;SDS011;6915;48.296;8.874;2024-03-06T00:24:28;1.87;;;1.20;;
13685;SDS011;6915;48.296;8.874;2024-03-06T00:26:57;4.40;;;2.10;;
13685;SDS011;6915;48.296;8.874;2024-03-06T00:29:24;2.87;;;1.70;;
13685;SDS011;6915;48.296;8.874;2024-03-06T00:31:51;2.13;;;1.93;;
13685;SDS011;6915;48.296;8.874;2024-03-06T00:34:18;2.67;;;1.80;;
13685;SDS011;6915;48.296;8.874;2024-03-06T00:36:45;2.73;;;1.97;;
13685;SDS011;6915;48.296;8.874;2024-03-06T00:39:12;2.77;;;2.50;;
13685;SDS011;6915;48.296;8.874;2024-03-06T00:41:41;3.87;;;2.87;;
13685;SDS011;6915;48.296;8.874;2024-03-06T00:44:08;4.10;;;2.73;;
13685;SDS011;6915;48.296;8.874;2024-03-06T00:46:35;5.27;;;3.20;;
13685;SDS011;6915;48.296;8.874;2024-03-06T00:49:02;3.60;;;3.30;;
13685;SDS011;6915;48.296;8.874;2024-03-06T00:51:29;5.37;;;3.30;;
13685;SDS011;6915;48.296;8.874;2024-03-06T00:53:56;3.77;;;3.37;;
13685;SDS011;6915;48.296;8.874;2024-03-06T00:56:23;3.70;;;3.40;;
13685;SDS011;6915;48.296;8.874;2024-03-06T00:58:52;4.27;;;3.23;;
13685;SDS011;6915;48.296;8.874;2024-03-06T01:01:19;4.97;;;3.50;;
13685;SDS011;6915;48.296;8.874;2024-03-06T01:03:46;3.40;;;3.10;;
13685;SDS011;6915;48.296;8.874;2024-03-06T01:06:13;3.27;;;3.00;;
13685;SDS011;6915;48.296;8.874;2024-03-06T01:08:40;3.60;;;3.30;;
13685;SDS011;6915;48.296;8.874;2024-03-06T01:11:07;3.50;;;3.20;;
13685;SDS011;6915;48.296;8.874;2024-03-06T01:13:35;3.90;;;3.30;;
13685;SDS011;6915;48.296;8.874;2024-03-06T01:16:04;4.10;;;3.70;;
13685;SDS011;6915;48.296;8.874;2024-03-06T01:18:31;3.57;;;3.20;;
13685;SDS011;6915;48.296;8.874;2024-03-06T01:20:59;4.60;;;3.23;;
13685;SDS011;6915;48.296;8.874;2024-03-06T01:23:26;3.97;;;3.53;;
13685;SDS011;6915;48.296;8.874;2024-03-06T01:25:52;3.87;;;3.20;;
13685;SDS011;6915;48.296;8.874;2024-03-06T01:28:19;3.57;;;3.27;;
13685;SDS011;6915;48.296;8.874;2024-03-06T01:30:46;3.47;;;3.17;;
13685;SDS011;6915;48.296;8.874;2024-03-06T01:33:15;3.40;;;3.10;;
13685;SDS011;6915;48.296;8.874;2024-03-06T01:35:42;4.53;;;3.17;;
13685;SDS011;6915;48.296;8.874;2024-03-06T01:38:09;3.00;;;2.80;;
13685;SDS011;6915;48.296;8.874;2024-03-06T01:40:36;3.13;;;2.93;;
13685;SDS011;6915;48.296;8.874;2024-03-06T01:43:03;3.20;;;2.90;;
13685;SDS011;6915;48.296;8.874;2024-03-06T01:45:30;3.20;;;2.90;;
13685;SDS011;6915;48.296;8.874;2024-03-06T01:47:57;3.63;;;3.17;;
13685;SDS011;6915;48.296;8.874;2024-03-06T01:50:26;3.07;;;2.80;;
13685;SDS011;6915;48.296;8.874;2024-03-06T01:52:53;3.53;;;3.23;;
13685;SDS011;6915;48.296;8.874;2024-03-06T01:55:20;5.47;;;2.97;;
13685;SDS011;6915;48.296;8.874;2024-03-06T01:57:47;3.60;;;3.20;;
13685;SDS011;6915;48.296;8.874;2024-03-06T02:00:14;4.13;;;3.13;;
13685;SDS011;6915;48.296;8.874;2024-03-06T02:02:42;3.30;;;3.00;;
13685;SDS011;6915;48.296;8.874;2024-03-06T02:05:09;3.90;;;3.40;;
13685;SDS011;6915;48.296;8.874;2024-03-06T02:07:39;3.57;;;3.00;;
13685;SDS011;6915;48.296;8.874;2024-03-06T02:10:07;3.80;;;3.00;;
13685;SDS011;6915;48.296;8.874;2024-03-06T02:12:37;2.47;;;2.27;;
13685;SDS011;6915;48.296;8.874;2024-03-06T02:15:05;3.13;;;2.40;;
13685;SDS011;6915;48.296;8.874;2024-03-06T02:17:33;2.60;;;2.40;;
13685;SDS011;6915;48.296;8.874;2024-03-06T02:20:01;2.57;;;2.37;;
13685;SDS011;6915;48.296;8.874;2024-03-06T02:22:32;2.60;;;2.40;;
13685;SDS011;6915;48.296;8.874;2024-03-06T02:24:59;3.20;;;2.90;;
13685;SDS011;6915;48.296;8.874;2024-03-06T02:27:26;3.53;;;2.77;;
13685;SDS011;6915;48.296;8.874;2024-03-06T02:29:53;4.03;;;2.53;;
13685;SDS011;6915;48.296;8.874;2024-03-06T02:32:20;3.67;;;2.43;;
13685;SDS011;6915;48.296;8.874;2024-03-06T02:34:49;4.60;;;2.20;;
13685;SDS011;6915;48.296;8.874;2024-03-06T02:37:16;2.87;;;2.20;;
13685;SDS011;6915;48.296;8.874;2024-03-06T02:39:45;2.67;;;2.13;;
13685;SDS011;6915;48.296;8.874;2024-03-06T02:42:11;4.27;;;1.93;;
13685;SDS011;6915;48.296;8.874;2024-03-06T02:44:38;2.60;;;1.90;;
13685;SDS011;6915;48.296;8.874;2024-03-06T02:47:05;3.70;;;1.77;;
13685;SDS011;6915;48.296;8.874;2024-03-06T02:49:32;2.57;;;1.93;;
13685;SDS011;6915;48.296;8.874;2024-03-06T02:51:59;2.30;;;2.00;;
13685;SDS011;6915;48.296;8.874;2024-03-06T02:54:27;4.70;;;1.97;;
13685;SDS011;6915;48.296;8.874;2024-03-06T02:56:55;4.13;;;2.17;;
13685;SDS011;6915;48.296;8.874;2024-03-06T02:59:22;2.10;;;2.00;;
13685;SDS011;6915;48.296;8.874;2024-03-06T03:01:49;3.50;;;2.00;;
13685;SDS011;6915;48.296;8.874;2024-03-06T03:04:16;2.43;;;2.00;;
13685;SDS011;6915;48.296;8.874;2024-03-06T03:06:43;5.57;;;2.17;;
13685;SDS011;6915;48.296;8.874;2024-03-06T03:09:10;2.30;;;2.07;;
13685;SDS011;6915;48.296;8.874;2024-03-06T03:11:37;2.33;;;2.13;;
13685;SDS011;6915;48.296;8.874;2024-03-06T03:14:05;2.40;;;2.20;;
13685;SDS011;6915;48.296;8.874;2024-03-06T03:16:32;3.37;;;2.27;;
13685;SDS011;6915;48.296;8.874;2024-03-06T03:19:00;2.57;;;2.37;;
13685;SDS011;6915;48.296;8.874;2024-03-06T03:21:27;2.47;;;2.23;;
13685;SDS011;6915;48.296;8.874;2024-03-06T03:23:54;2.43;;;2.23;;
13685;SDS011;6915;48.296;8.874;2024-03-06T03:26:21;2.67;;;2.47;;
13685;SDS011;6915;48.296;8.874;2024-03-06T03:28:48;3.20;;;2.90;;
13685;SDS011;6915;48.296;8.874;2024-03-06T03:31:16;3.00;;;2.67;;
13685;SDS011;6915;48.296;8.874;2024-03-06T03:33:43;3.23;;;2.93;;
13685;SDS011;6915;48.296;8.874;2024-03-06T03:36:10;6.23;;;3.20;;
13685;SDS011;6915;48.296;8.874;2024-03-06T03:38:38;2.87;;;2.67;;
13685;SDS011;6915;48.296;8.874;2024-03-06T03:41:06;3.20;;;3.00;;
13685;SDS011;6915;48.296;8.874;2024-03-06T03:43:34;4.87;;;3.27;;
13685;SDS011;6915;48.296;8.874;2024-03-06T03:46:01;3.00;;;2.70;;
13685;SDS011;6915;48.296;8.874;2024-03-06T03:48:30;3.00;;;2.70;;
13685;SDS011;6915;48.296;8.874;2024-03-06T03:51:00;3.77;;;2.40;;
13685;SDS011;6915;48.296;8.874;2024-03-06T03:53:28;2.93;;;2.63;;
13685;SDS011;6915;48.296;8.874;2024-03-06T03:55:55;2.43;;;2.23;;
13685;SDS011;6915;48.296;8.874;2024-03-06T03:58:22;2.80;;;2.60;;
13685;SDS011;6915;48.296;8.874;2024-03-06T04:00:48;3.30;;;3.00;;
13685;SDS011;6915;48.296;8.874;2024-03-06T04:03:17;3.43;;;3.13;;
13685;SDS011;6915;48.296;8.874;2024-03-06T04:05:46;2.87;;;2.67;;
13685;SDS011;6915;48.296;8.874;2024-03-06T04:08:14;3.00;;;2.70;;
13685;SDS011;6915;48.296;8.874;2024-03-06T04:10:41;4.30;;;2.70;;
13685;SDS011;6915;48.296;8.874;2024-03-06T04:13:10;5.13;;;3.07;;
13685;SDS011;6915;48.296;8.874;2024-03-06T04:15:37;3.07;;;2.83;;
13685;SDS011;6915;48.296;8.874;2024-03-06T04:18:04;3.80;;;3.50;;
13685;SDS011;6915;48.296;8.874;2024-03-06T04:20:32;3.70;;;3.40;;
13685;SDS011;6915;48.296;8.874;2024-03-06T04:23:00;3.60;;;2.90;;
13685;SDS011;6915;48.296;8.874;2024-03-06T04:25:27;3.97;;;3.33;;
13685;SDS011;6915;48.296;8.874;2024-03-06T04:27:54;3.70;;;3.40;;
13685;SDS011;6915;48.296;8.874;2024-03-06T04:30:21;3.80;;;3.50;;
13685;SDS011;6915;48.296;8.874;2024-03-06T04:32:48;3.40;;;3.10;;
13685;SDS011;6915;48.296;8.874;2024-03-06T04:35:15;5.10;;;3.17;;
13685;SDS011;6915;48.296;8.874;2024-03-06T04:37:42;4.00;;;3.33;;
13685;SDS011;6915;48.296;8.874;2024-03-06T04:40:11;3.13;;;2.83;;
13685;SDS011;6915;48.296;8.874;2024-03-06T04:42:42;3.10;;;2.80;;
13685;SDS011;6915;48.296;8.874;2024-03-06T04:45:13;3.67;;;3.00;;
13685;SDS011;6915;48.296;8.874;2024-03-06T04:47:42;3.20;;;2.80;;
13685;SDS011;6915;48.296;8.874;2024-03-06T04:50:10;3.87;;;2.83;;
13685;SDS011;6915;48.296;8.874;2024-03-06T04:52:37;3.27;;;2.90;;
13685;SDS011;6915;48.296;8.874;2024-03-06T04:55:05;3.23;;;2.60;;
13685;SDS011;6915;48.296;8.874;2024-03-06T04:57:36;4.10;;;3.00;;
13685;SDS011;6915;48.296;8.874;2024-03-06T05:00:04;6.80;;;3.00;;
13685;SDS011;6915;48.296;8.874;2024-03-06T05:02:33;3.40;;;3.10;;
13685;SDS011;6915;48.296;8.874;2024-03-06T05:05:01;3.50;;;3.10;;
13685;SDS011;6915;48.296;8.874;2024-03-06T05:07:29;3.40;;;3.10;;
13685;SDS011;6915;48.296;8.874;2024-03-06T05:09:57;3.43;;;3.13;;
13685;SDS011;6915;48.296;8.874;2024-03-06T05:12:24;3.30;;;3.00;;
13685;SDS011;6915;48.296;8.874;2024-03-06T05:14:53;4.60;;;3.20;;
13685;SDS011;6915;48.296;8.874;2024-03-06T05:17:21;3.60;;;3.30;;
13685;SDS011;6915;48.296;8.874;2024-03-06T05:19:48;3.43;;;3.13;;
13685;SDS011;6915;48.296;8.874;2024-03-06T05:22:16;3.70;;;3.40;;
13685;SDS011;6915;48.296;8.874;2024-03-06T05:24:43;3.43;;;3.13;;
13685;SDS011;6915;48.296;8.874;2024-03-06T05:27:10;3.67;;;3.37;;
13685;SDS011;6915;48.296;8.874;2024-03-06T05:29:42;5.43;;;3.40;;
13685;SDS011;6915;48.296;8.874;2024-03-06T05:32:10;4.90;;;3.30;;
13685;SDS011;6915;48.296;8.874;2024-03-06T05:34:38;4.90;;;3.30;;
13685;SDS011;6915;48.296;8.874;2024-03-06T05:37:06;5.20;;;3.80;;
13685;SDS011;6915;48.296;8.874;2024-03-06T05:39:33;4.00;;;3.60;;
13685;SDS011;6915;48.296;8.874;2024-03-06T05:42:00;4.57;;;3.57;;
13685;SDS011;6915;48.296;8.874;2024-03-06T05:44:42;4.00;;;3.70;;
13685;SDS011;6915;48.296;8.874;2024-03-06T05:47:12;5.37;;;3.97;;
13685;SDS011;6915;48.296;8.874;2024-03-06T05:49:40;4.40;;;4.00;;
13685;SDS011;6915;48.296;8.874;2024-03-06T05:52:21;4.90;;;4.50;;
13685;SDS011;6915;48.296;8.874;2024-03-06T05:54:49;6.20;;;5.60;;
13685;SDS011;6915;48.296;8.874;2024-03-06T05:57:17;4.83;;;4.43;;
13685;SDS011;6915;48.296;8.874;2024-03-06T05:59:46;4.70;;;4.30;;
13685;SDS011;6915;48.296;8.874;2024-03-06T06:02:14;4.73;;;4.33;;
13685;SDS011;6915;48.296;8.874;2024-03-06T06:04:45;3.90;;;3.60;;
13685;SDS011;6915;48.296;8.874;2024-03-06T06:07:14;4.27;;;3.87;;
13685;SDS011;6915;48.296;8.874;2024-03-06T06:09:41;3.90;;;3.60;;
13685;SDS011;6915;48.296;8.874;2024-03-06T06:12:08;4.00;;;3.60;;
13685;SDS011;6915;48.296;8.874;2024-03-06T06:14:35;4.80;;;4.30;;
13685;SDS011;6915;48.296;8.874;2024-03-06T06:17:02;5.33;;;4.10;;
13685;SDS011;6915;48.296;8.874;2024-03-06T06:19:31;4.90;;;4.40;;
13685;SDS011;6915;48.296;8.874;2024-03-06T06:21:58;5.07;;;4.47;;
13685;SDS011;6915;48.296;8.874;2024-03-06T06:24:25;4.93;;;4.40;;
13685;SDS011;6915;48.296;8.874;2024-03-06T06:26:52;6.47;;;4.60;;
13685;SDS011;6915;48.296;8.874;2024-03-06T06:29:19;5.70;;;4.73;;
13685;SDS011;6915;48.296;8.874;2024-03-06T06:31:46;9.77;;;5.63;;
13685;SDS011;6915;48.296;8.874;2024-03-06T06:34:14;6.10;;;4.70;;
13685;SDS011;6915;48.296;8.874;2024-03-06T06:36:46;9.73;;;7.47;;
13685;SDS011;6915;48.296;8.874;2024-03-06T06:39:13;8.10;;;6.27;;
13685;SDS011;6915;48.296;8.874;2024-03-06T06:41:41;6.43;;;5.33;;
13685;SDS011;6915;48.296;8.874;2024-03-06T06:44:09;7.17;;;4.97;;
13685;SDS011;6915;48.296;8.874;2024-03-06T06:46:36;7.90;;;4.87;;
13685;SDS011;6915;48.296;8.874;2024-03-06T06:49:03;10.30;;;5.93;;
13685;SDS011;6915;48.296;8.874;2024-03-06T06:51:30;8.17;;;5.67;;
13685;SDS011;6915;48.296;8.874;2024-03-06T06:53:58;8.90;;;5.93;;
13685;SDS011;6915;48.296;8.874;2024-03-06T06:56:25;8.97;;;5.67;;
13685;SDS011;6915;48.296;8.874;2024-03-06T07:09:31;8.47;;;5.40;;
13685;SDS011;6915;48.296;8.874;2024-03-06T07:11:59;6.57;;;5.60;;
13685;SDS011;6915;48.296;8.874;2024-03-06T07:14:26;7.97;;;6.00;;
13685;SDS011;6915;48.296;8.874;2024-03-06T07:16:53;6.77;;;5.57;;
13685;SDS011;6915;48.296;8.874;2024-03-06T07:19:20;9.17;;;5.57;;
13685;SDS011;6915;48.296;8.874;2024-03-06T07:21:47;11.17;;;5.50;;
13685;SDS011;6915;48.296;8.874;2024-03-06T07:24:14;7.70;;;5.60;;
13685;SDS011;6915;48.296;8.874;2024-03-06T07:26:43;7.10;;;5.53;;
13685;SDS011;6915;48.296;8.874;2024-03-06T07:29:10;9.90;;;5.90;;
13685;SDS011;6915;48.296;8.874;2024-03-06T07:31:40;6.93;;;5.60;;
13685;SDS011;6915;48.296;8.874;2024-03-06T07:34:07;8.53;;;5.57;;
13685;SDS011;6915;48.296;8.874;2024-03-06T07:36:35;7.73;;;5.60;;
13685;SDS011;6915;48.296;8.874;2024-03-06T07:39:02;8.07;;;5.70;;
13685;SDS011;6915;48.296;8.874;2024-03-06T07:41:29;7.53;;;5.80;;
13685;SDS011;6915;48.296;8.874;2024-03-06T07:43:59;7.43;;;5.70;;
13685;SDS011;6915;48.296;8.874;2024-03-06T07:46:26;8.33;;;5.67;;
13685;SDS011;6915;48.296;8.874;2024-03-06T07:48:53;6.93;;;5.60;;
13685;SDS011;6915;48.296;8.874;2024-03-06T07:51:21;7.03;;;5.70;;
13685;SDS011;6915;48.296;8.874;2024-03-06T07:53:48;7.30;;;5.70;;
13685;SDS011;6915;48.296;8.874;2024-03-06T07:56:15;7.03;;;5.93;;
13685;SDS011;6915;48.296;8.874;2024-03-06T07:58:43;7.80;;;6.97;;
13685;SDS011;6915;48.296;8.874;2024-03-06T08:01:11;8.63;;;5.70;;
13685;SDS011;6915;48.296;8.874;2024-03-06T08:03:39;6.97;;;5.80;;
13685;SDS011;6915;48.296;8.874;2024-03-06T08:06:09;10.87;;;5.87;;
13685;SDS011;6915;48.296;8.874;2024-03-06T08:08:37;7.80;;;5.73;;
13685;SDS011;6915;48.296;8.874;2024-03-06T08:11:06;6.80;;;5.17;;
13685;SDS011;6915;48.296;8.874;2024-03-06T08:13:35;6.17;;;5.20;;
13685;SDS011;6915;48.296;8.874;2024-03-06T08:16:03;5.20;;;4.63;;
13685;SDS011;6915;48.296;8.874;2024-03-06T08:18:32;9.03;;;6.17;;
13685;SDS011;6915;48.296;8.874;2024-03-06T08:21:00;8.17;;;6.10;;
13685;SDS011;6915;48.296;8.874;2024-03-06T08:23:29;6.23;;;5.20;;
13685;SDS011;6915;48.296;8.874;2024-03-06T08:25:56;9.43;;;6.27;;
13685;SDS011;6915;48.296;8.874;2024-03-06T08:28:24;6.67;;;5.97;;
13685;SDS011;6915;48.296;8.874;2024-03-06T08:30:52;9.37;;;5.83;;
13685;SDS011;6915;48.296;8.874;2024-03-06T08:33:19;6.47;;;5.87;;
13685;SDS011;6915;48.296;8.874;2024-03-06T08:35:49;8.83;;;5.67;;
13685;SDS011;6915;48.296;8.874;2024-03-06T08:38:16;9.37;;;5.93;;
13685;SDS011;6915;48.296;8.874;2024-03-06T08:40:43;8.00;;;6.13;;
13685;SDS011;6915;48.296;8.874;2024-03-06T08:43:11;8.90;;;6.00;;
13685;SDS011;6915;48.296;8.874;2024-03-06T08:45:40;6.87;;;5.20;;
13685;SDS011;6915;48.296;8.874;2024-03-06T08:48:08;11.00;;;6.00;;
13685;SDS011;6915;48.296;8.874;2024-03-06T08:50:36;8.50;;;5.73;;
13685;SDS011;6915;48.296;8.874;2024-03-06T08:53:05;6.50;;;5.30;;
13685;SDS011;6915;48.296;8.874;2024-03-06T08:55:34;6.00;;;4.30;;
13685;SDS011;6915;48.296;8.874;2024-03-06T08:58:02;6.20;;;4.87;;
13685;SDS011;6915;48.296;8.874;2024-03-06T09:00:29;6.00;;;4.63;;
13685;SDS011;6915;48.296;8.874;2024-03-06T09:02:56;9.17;;;5.13;;
13685;SDS011;6915;48.296;8.874;2024-03-06T09:05:24;5.60;;;4.50;;
13685;SDS011;6915;48.296;8.874;2024-03-06T09:07:51;7.47;;;4.70;;
13685;SDS011;6915;48.296;8.874;2024-03-06T09:10:21;5.17;;;4.60;;
13685;SDS011;6915;48.296;8.874;2024-03-06T09:12:50;7.23;;;4.20;;
13685;SDS011;6915;48.296;8.874;2024-03-06T09:15:17;3.40;;;3.10;;
13685;SDS011;6915;48.296;8.874;2024-03-06T09:17:44;4.70;;;3.30;;
13685;SDS011;6915;48.296;8.874;2024-03-06T09:20:12;3.53;;;3.23;;
13685;SDS011;6915;48.296;8.874;2024-03-06T09:22:41;3.77;;;3.27;;
13685;SDS011;6915;48.296;8.874;2024-03-06T09:25:08;4.03;;;3.63;;
13685;SDS011;6915;48.296;8.874;2024-03-06T09:27:38;6.73;;;3.73;;
13685;SDS011;6915;48.296;8.874;2024-03-06T09:30:06;5.77;;;4.10;;
13685;SDS011;6915;48.296;8.874;2024-03-06T09:32:35;5.90;;;4.40;;
13685;SDS011;6915;48.296;8.874;2024-03-06T09:35:02;7.13;;;3.90;;
13685;SDS011;6915;48.296;8.874;2024-03-06T09:37:29;5.57;;;3.37;;
13685;SDS011;6915;48.296;8.874;2024-03-06T09:39:56;3.67;;;3.30;;
13685;SDS011;6915;48.296;8.874;2024-03-06T09:42:23;3.60;;;3.30;;
13685;SDS011;6915;48.296;8.874;2024-03-06T09:44:52;3.90;;;3.03;;
13685;SDS011;6915;48.296;8.874;2024-03-06T09:47:21;3.93;;;2.87;;
13685;SDS011;6915;48.296;8.874;2024-03-06T09:49:50;5.80;;;3.03;;
13685;SDS011;6915;48.296;8.874;2024-03-06T09:52:18;3.17;;;2.87;;
13685;SDS011;6915;48.296;8.874;2024-03-06T09:54:45;4.17;;;3.40;;
13685;SDS011;6915;48.296;8.874;2024-03-06T14:56:55;9.83;;;8.57;;
13685;SDS011;6915;48.296;8.874;2024-03-06T14:59:22;9.97;;;8.93;;
13685;SDS011;6915;48.296;8.874;2024-03-06T15:01:49;9.43;;;8.43;;
13685;SDS011;6915;48.296;8.874;2024-03-06T15:04:16;10.60;;;9.10;;
13685;SDS011;6915;48.296;8.874;2024-03-06T15:06:44;10.30;;;9.10;;
13685;SDS011;6915;48.296;8.874;2024-03-06T15:09:12;11.80;;;9.70;;
13685;SDS011;6915;48.296;8.874;2024-03-06T15:11:40;11.13;;;9.93;;
13685;SDS011;6915;48.296;8.874;2024-03-06T15:14:09;12.53;;;9.80;;
13685;SDS011;6915;48.296;8.874;2024-03-06T15:16:36;10.80;;;9.57;;
13685;SDS011;6915;48.296;8.874;2024-03-06T15:19:05;10.90;;;9.37;;
13685;SDS011;6915;48.296;8.874;2024-03-06T15:21:32;11.73;;;9.40;;
13685;SDS011;6915;48.296;8.874;2024-03-06T15:23:59;10.90;;;9.10;;
13685;SDS011;6915;48.296;8.874;2024-03-06T15:26:26;10.63;;;8.80;;
13685;SDS011;6915;48.296;8.874;2024-03-06T15:28:53;10.70;;;9.03;;
13685;SDS011;6915;48.296;8.874;2024-03-06T15:31:21;9.80;;;8.80;;
13685;SDS011;6915;48.296;8.874;2024-03-06T15:33:54;9.97;;;8.90;;
13685;SDS011;6915;48.296;8.874;2024-03-06T15:36:21;10.63;;;9.23;;
13685;SDS011;6915;48.296;8.874;2024-03-06T15:38:48;11.20;;;9.80;;
13685;SDS011;6915;48.296;8.874;2024-03-06T15:41:15;10.80;;;9.27;;
13685;SDS011;6915;48.296;8.874;2024-03-06T15:43:45;10.43;;;9.43;;
13685;SDS011;6915;48.296;8.874;2024-03-06T15:46:12;10.53;;;9.30;;
13685;SDS011;6915;48.296;8.874;2024-03-06T15:48:40;10.43;;;9.33;;
13685;SDS011;6915;48.296;8.874;2024-03-06T15:51:07;10.80;;;9.63;;
13685;SDS011;6915;48.296;8.874;2024-03-06T15:53:34;10.57;;;9.47;;
13685;SDS011;6915;48.296;8.874;2024-03-06T15:56:01;11.07;;;9.70;;
13685;SDS011;6915;48.296;8.874;2024-03-06T15:58:28;10.37;;;9.33;;
13685;SDS011;6915;48.296;8.874;2024-03-06T16:00:55;10.47;;;9.47;;
13685;SDS011;6915;48.296;8.874;2024-03-06T16:03:22;11.63;;;9.53;;
13685;SDS011;6915;48.296;8.874;2024-03-06T16:05:50;10.43;;;9.33;;
13685;SDS011;6915;48.296;8.874;2024-03-06T16:08:17;9.77;;;8.80;;
13685;SDS011;6915;48.296;8.874;2024-03-06T16:10:46;10.83;;;9.57;;
13685;SDS011;6915;48.296;8.874;2024-03-06T16:13:13;12.47;;;10.40;;
13685;SDS011;6915;48.296;8.874;2024-03-06T16:15:40;10.53;;;9.27;;
13685;SDS011;6915;48.296;8.874;2024-03-06T16:18:07;11.83;;;10.20;;
13685;SDS011;6915;48.296;8.874;2024-03-06T16:20:33;10.47;;;9.13;;
13685;SDS011;6915;48.296;8.874;2024-03-06T16:23:02;9.90;;;8.90;;
13685;SDS011;6915;48.296;8.874;2024-03-06T16:25:29;11.57;;;9.90;;
13685;SDS011;6915;48.296;8.874;2024-03-06T16:27:57;10.23;;;9.10;;
13685;SDS011;6915;48.296;8.874;2024-03-06T16:30:24;10.03;;;9.03;;
13685;SDS011;6915;48.296;8.874;2024-03-06T16:32:51;10.30;;;9.33;;
13685;SDS011;6915;48.296;8.874;2024-03-06T16:35:18;11.53;;;9.40;;
13685;SDS011;6915;48.296;8.874;2024-03-06T16:37:45;12.87;;;10.50;;
13685;SDS011;6915;48.296;8.874;2024-03-06T16:40:16;12.37;;;9.90;;
13685;SDS011;6915;48.296;8.874;2024-03-06T16:45:18;12.83;;;11.50;;
13685;SDS011;6915;48.296;8.874;2024-03-06T16:47:45;12.23;;;10.73;;
13685;SDS011;6915;48.296;8.874;2024-03-06T16:50:13;12.67;;;11.37;;
13685;SDS011;6915;48.296;8.874;2024-03-06T16:52:40;11.03;;;9.80;;
13685;SDS011;6915;48.296;8.874;2024-03-06T16:55:07;13.43;;;10.90;;
13685;SDS011;6915;48.296;8.874;2024-03-06T17:00:16;11.10;;;10.00;;
13685;SDS011;6915;48.296;8.874;2024-03-06T17:02:44;10.37;;;9.33;;
13685;SDS011;6915;48.296;8.874;2024-03-06T17:05:11;13.00;;;10.60;;
13685;SDS011;6915;48.296;8.874;2024-03-06T17:07:40;13.23;;;11.57;;
13685;SDS011;6915;48.296;8.874;2024-03-06T21:52:29;22.97;;;18.60;;
13685;SDS011;6915;48.296;8.874;2024-03-06T21:54:56;19.77;;;16.90;;
13685;SDS011;6915;48.296;8.874;2024-03-06T21:57:23;22.33;;;18.30;;
13685;SDS011;6915;48.296;8.874;2024-03-06T21:59:50;23.87;;;19.10;;
13685;SDS011;6915;48.296;8.874;2024-03-06T22:02:17;24.17;;;18.87;;
13685;SDS011;6915;48.296;8.874;2024-03-06T23:06:33;32.43;;;22.60;;
13685;SDS011;6915;48.296;8.874;2024-03-06T23:09:00;30.90;;;22.03;;
13685;SDS011;6915;48.296;8.874;2024-03-06T23:11:27;38.67;;;25.77;;
13685;SDS011;6915;48.296;8.874;2024-03-06T23:13:55;35.80;;;24.90;;
13685;SDS011;6915;48.296;8.874;2024-03-06T23:16:22;44.30;;;28.87;;
13685;SDS011;6915;48.296;8.874;2024-03-06T23:18:49;41.47;;;26.70;;
